Sunday, March 29, 2015
06:09 UTC
  |  Log In   |  Register Free
Airport Search:

Hillsboro Municipal Airport
(KINJ)

Hillsboro Municipal Airport Diagram
No Airport Diagram Available

FAA data valid effective March 05, 2015 - April 30, 2015 (unless otherwise noted).

 
 
 
 
 
 
 
 
 
 
 
 
 
 

Current Aviation Weather for Hillsboro Municipal Airport (KINJ)

The most recent METAR observation for KINJ was updated at: 1410
METAR Summary (Translated METAR)
KINJ
251355Z AUTO 17008KT 7SM BKN006 17/15 A2995 RMK AO2 T01670152
KCPT
251355Z AUTO 16014KT 6SM BR SCT004 16/16 A2993 RMK AO2
(23.6 nm NW from KINJ)
KJWY
251355Z AUTO 16011G16KT 10SM BKN005 16/16 A2995 RMK AO2 T01640163
(24.4 nm NE from KINJ)
TAF
No TAF information found within 50 nm of KINJ
  Airport Weather Conditions for KINJ

 Current Weather at INJ
65° F
Fair
Southeast winds at 10.4 mph
INJ NOAA Radar

Pressure: 30.01 in
Humidity: 49%
Wind: Southeast at 10.4 MPH (9 KT)
Dew Point: 45.5°F
Visibility: 10.00 mi


Airport Weather Forecast for KINJ

Translated METAR and TAF for KINJ
Translated METAR for KINJ (0609 UTC 29 March 2015)
found at http://aviationweather.gov/adds/metars/
 
METAR text: KINJ 290555Z AUTO 15008KT 10SM CLR 17/08 A3002 RMK AO2 T01720075 10250 20172 402850060
Conditions at: KINJ (HILLSBORO , TX, US) observed 0555 UTC 29 March 2015
Temperature: 17.2°C (63°F)
Dewpoint: 7.5°C (46°F) [RH = 53%]
Pressure (altimeter): 30.02 inches Hg (1016.7 mb)
Winds: from the SSE (150 degrees) at 9 MPH (8 knots; 4.2 m/s)
Visibility: 10 or more miles (16+ km)
Ceiling: at least 12,000 feet AGL
Clouds: sky clear below 12,000 feet AGL
Weather: automated observation with no human augmentation;
there may or may not be significant weather present at this time
Translated TAF for KINJ

There is no translated TAF available for this airport

Find All Airport Services Find A Hotel Find A Rental Car Find A Golf Course Find A Restaurant $100 Hamburger



FBO's on the Field
FBO Company Facility Photos Services Transportation Aviation Fuel Prices: Prices include tax
Catering Weather Repair Courtesy Rental Type 100LL JetA JetA+ MOGAS 8087
 
Hillsboro Municipal Airport

This FBO has not yet been rated
FS:Avfuel
Last Updated: Mar-27
Login to update fuel prices
SS:
Contact Hillsboro Municipal AirportMore FBO Information
 
Add another FBO Facility Photos Catering Weather Repair Courtesy Rental Type 100LL JetA JetA+ MOGAS 8087
Services Transportation Aviation Fuel Prices: Prices include tax


model-print
model-print
model-print
model-print